Aviation Digital Data Service (ADDS)

Output produced by METARs form (0744 UTC 27 July 2016)
found at http://aviationweather.gov/adds/metars/
 
KIAD 270527Z 2706/2812 24005KT P6SM BKN100 
     FM271500 34004KT P6SM BKN060